createdAt,value
2019-04-10T00:01:03.767Z,26.77
2019-04-10T00:03:37.872Z,23.60
2019-04-10T00:06:07.288Z,29.27
2019-04-10T00:08:38.649Z,24.52
2019-04-10T00:11:10.119Z,28.12
2019-04-10T00:13:40.875Z,27.80
2019-04-10T00:16:11.915Z,25.60
2019-04-10T00:18:42.791Z,24.92
2019-04-10T00:21:14.162Z,18.50
2019-04-10T00:23:45.430Z,18.27
2019-04-10T00:26:17.342Z,28.92
2019-04-10T00:28:48.058Z,33.48
2019-04-10T00:31:19.770Z,32.17
2019-04-10T00:33:51.400Z,35.68
2019-04-10T00:36:22.466Z,25.72
2019-04-10T00:38:53.898Z,26.00
2019-04-10T00:41:25.030Z,38.13
2019-04-10T00:43:57.380Z,38.17
2019-04-10T00:46:28.428Z,36.70
2019-04-10T00:48:59.304Z,26.80
2019-04-10T00:51:31.014Z,24.35
2019-04-10T00:54:01.815Z,31.33
2019-04-10T00:56:32.894Z,23.50
2019-04-10T00:59:03.863Z,35.48
2019-04-10T01:01:36.123Z,30.27
2019-04-10T01:04:07.306Z,23.87
2019-04-10T01:06:38.360Z,28.25
2019-04-10T01:09:10.855Z,29.80
2019-04-10T01:11:42.004Z,36.53
2019-04-10T01:14:13.734Z,29.92
2019-04-10T01:16:44.429Z,54.30
2019-04-10T01:19:15.578Z,41.98
2019-04-10T01:21:46.504Z,43.58
2019-04-10T01:24:17.635Z,44.98
2019-04-10T01:26:49.636Z,45.67
2019-04-10T01:29:21.726Z,47.67
2019-04-10T01:31:53.150Z,42.30
2019-04-10T01:34:24.121Z,50.35
2019-04-10T01:36:55.182Z,47.03
2019-04-10T01:39:28.548Z,32.65
2019-04-10T01:42:00.512Z,33.08
2019-04-10T01:44:32.983Z,32.70
2019-04-10T01:47:04.673Z,27.05
2019-04-10T01:49:35.481Z,25.62
2019-04-10T01:52:06.929Z,29.60
2019-04-10T01:54:37.821Z,23.67
2019-04-10T01:57:08.784Z,31.75
2019-04-10T01:59:40.865Z,31.52
2019-04-10T02:02:13.354Z,27.35
2019-04-10T02:04:44.221Z,23.30
2019-04-10T02:07:16.104Z,22.00
2019-04-10T02:09:47.715Z,29.85
2019-04-10T02:12:18.705Z,28.10
2019-04-10T02:14:49.563Z,28.20
2019-04-10T02:17:20.643Z,30.62
2019-04-10T02:19:51.598Z,29.37
2019-04-10T02:22:22.597Z,27.80
2019-04-10T02:24:53.560Z,29.25
2019-04-10T02:27:24.565Z,35.73
2019-04-10T02:29:55.796Z,40.30
2019-04-10T02:32:28.222Z,34.48
2019-04-10T02:34:59.072Z,31.48
2019-04-10T02:37:31.134Z,32.48
2019-04-10T02:40:03.567Z,32.08
2019-04-10T02:42:34.501Z,32.00
2019-04-10T02:45:08.440Z,37.38
2019-04-10T02:47:41.217Z,27.70
2019-04-10T02:50:14.012Z,45.50
2019-04-10T02:52:45.956Z,37.08
2019-04-10T02:55:18.654Z,38.25
2019-04-10T02:57:49.986Z,48.15
2019-04-10T03:00:22.485Z,40.83
2019-04-10T03:02:55.669Z,37.15
2019-04-10T03:05:27.335Z,36.13
2019-04-10T03:08:00.304Z,45.90
2019-04-10T03:10:40.378Z,45.15
2019-04-10T03:13:04.708Z,35.68
2019-04-10T03:15:36.049Z,39.15
2019-04-10T03:18:07.072Z,31.12
2019-04-10T03:20:38.476Z,25.82
2019-04-10T03:23:09.473Z,27.42
2019-04-10T03:25:41.413Z,36.35
2019-04-10T03:28:12.122Z,38.95
2019-04-10T03:30:44.380Z,33.08
2019-04-10T03:33:21.833Z,37.83
2019-04-10T03:35:51.496Z,50.55
2019-04-10T03:38:22.382Z,42.98
2019-04-10T03:40:53.520Z,41.55
2019-04-10T03:43:24.400Z,53.28
2019-04-10T03:45:57.142Z,44.83
2019-04-10T03:48:29.203Z,46.95
2019-04-10T03:51:00.501Z,41.28
2019-04-10T03:53:32.084Z,44.03
2019-04-10T03:56:07.679Z,43.92
2019-04-10T03:58:42.507Z,50.45
2019-04-10T04:01:14.390Z,45.73
2019-04-10T04:03:45.382Z,49.75
2019-04-10T04:06:17.519Z,52.80
2019-04-10T04:09:00.923Z,42.55
2019-04-10T04:11:21.795Z,38.90
2019-04-10T04:13:52.800Z,36.10
2019-04-10T04:16:24.728Z,51.13
2019-04-10T04:18:55.632Z,41.80
2019-04-10T04:21:27.826Z,38.78
2019-04-10T04:23:59.426Z,29.27
2019-04-10T04:26:31.422Z,44.53
2019-04-10T04:29:02.742Z,38.80
2019-04-10T04:31:33.683Z,47.23
2019-04-10T04:34:06.075Z,31.93
2019-04-10T04:36:37.316Z,35.28
2019-04-10T04:39:21.115Z,33.60
2019-04-10T04:41:40.808Z,36.53
2019-04-10T04:44:12.370Z,32.93
2019-04-10T04:46:52.743Z,37.55
2019-04-10T04:49:28.434Z,34.78
2019-04-10T04:52:00.255Z,37.73
2019-04-10T04:54:31.231Z,31.95
2019-04-10T04:57:02.411Z,35.90
2019-04-10T04:59:34.521Z,31.35
2019-04-10T05:02:05.867Z,34.98
2019-04-10T05:04:37.520Z,36.40
2019-04-10T05:07:08.418Z,29.85
2019-04-10T05:09:40.666Z,34.63
2019-04-10T05:12:11.635Z,49.48
2019-04-10T05:14:42.697Z,31.77
2019-04-10T05:17:16.334Z,31.17
2019-04-10T05:19:46.878Z,38.17
2019-04-10T05:22:18.745Z,32.28
2019-04-10T05:24:49.685Z,31.52
2019-04-10T05:27:20.762Z,28.30
2019-04-10T05:29:51.724Z,35.90
2019-04-10T05:32:23.433Z,31.37
2019-04-10T05:34:54.611Z,40.30
2019-04-10T05:37:25.721Z,36.48
2019-04-10T05:39:56.574Z,40.73
2019-04-10T05:42:27.638Z,34.55
2019-04-10T05:44:58.723Z,32.10
2019-04-10T05:47:30.784Z,38.23
2019-04-10T05:50:02.101Z,33.90
2019-04-10T05:52:33.263Z,27.62
2019-04-10T05:55:04.823Z,34.23
2019-04-10T05:57:35.432Z,36.15
2019-04-10T06:00:08.549Z,29.90
2019-04-10T06:02:39.852Z,40.60
2019-04-10T06:05:11.134Z,37.45
2019-04-10T06:07:41.908Z,35.85
2019-04-10T06:10:15.469Z,32.58
2019-04-10T06:12:46.746Z,33.40
2019-04-10T06:15:18.753Z,33.00
2019-04-10T06:17:50.950Z,33.63
2019-04-10T06:20:22.915Z,24.80
2019-04-10T06:22:54.794Z,23.87
2019-04-10T06:25:25.805Z,39.60
2019-04-10T06:27:57.057Z,27.13
2019-04-10T06:30:28.107Z,29.50
2019-04-10T06:33:10.230Z,28.00
2019-04-10T06:35:41.081Z,27.00
2019-04-10T06:38:12.750Z,31.48
2019-04-10T06:40:46.093Z,34.92
2019-04-10T06:43:17.125Z,43.85
2019-04-10T06:45:48.290Z,26.73
2019-04-10T06:48:19.350Z,32.50
2019-04-10T06:50:50.903Z,32.50
2019-04-10T06:53:22.705Z,36.73
2019-04-10T06:56:04.819Z,32.80
2019-04-10T06:58:36.008Z,28.80
2019-04-10T07:01:12.757Z,34.65
2019-04-10T07:03:51.871Z,34.63
2019-04-10T07:06:20.622Z,28.17
2019-04-10T07:08:50.914Z,31.23
2019-04-10T07:11:23.397Z,26.90
2019-04-10T07:13:54.862Z,27.65
2019-04-10T07:16:29.681Z,27.98
2019-04-10T07:19:02.741Z,25.97
2019-04-10T07:21:35.164Z,34.43
2019-04-10T07:24:07.961Z,28.10
2019-04-10T07:26:40.680Z,16.55
2019-04-10T07:29:10.943Z,24.57
2019-04-10T07:31:42.501Z,19.15
2019-04-10T07:34:13.531Z,30.32
2019-04-10T07:36:45.534Z,22.85
2019-04-10T07:39:17.350Z,21.60
2019-04-10T07:41:49.313Z,18.57
2019-04-10T07:44:20.119Z,18.87
2019-04-10T07:46:52.922Z,17.07
2019-04-10T07:49:31.064Z,19.48
2019-04-10T07:52:02.201Z,17.30
2019-04-10T07:54:33.210Z,24.05
2019-04-10T07:57:04.428Z,14.68
2019-04-10T07:59:35.595Z,16.77
2019-04-10T08:02:08.440Z,14.50
2019-04-10T08:04:39.548Z,15.38
2019-04-10T08:07:11.626Z,20.82
2019-04-10T08:09:43.079Z,13.93
2019-04-10T08:12:15.473Z,13.35
2019-04-10T08:14:46.433Z,14.68
2019-04-10T08:17:17.407Z,13.88
2019-04-10T08:19:48.787Z,16.87
2019-04-10T08:22:20.238Z,15.20
2019-04-10T08:24:51.282Z,9.20
2019-04-10T08:27:22.547Z,13.53
2019-04-10T08:29:53.425Z,15.98
2019-04-10T08:32:24.384Z,13.62
2019-04-10T08:34:56.062Z,9.78
2019-04-10T08:37:27.025Z,13.30
2019-04-10T08:39:59.063Z,9.40
2019-04-10T08:42:30.946Z,14.23
2019-04-10T08:45:02.948Z,9.05
2019-04-10T08:47:44.241Z,11.12
2019-04-10T08:50:14.901Z,9.50
2019-04-10T08:52:46.585Z,12.25
2019-04-10T08:55:17.772Z,12.33
2019-04-10T08:57:48.906Z,11.73
2019-04-10T09:00:20.656Z,11.43
2019-04-10T09:02:52.613Z,13.93
2019-04-10T09:05:23.872Z,7.28
2019-04-10T09:07:57.232Z,8.60
2019-04-10T09:10:28.196Z,20.48
2019-04-10T09:13:00.034Z,10.35
2019-04-10T09:15:32.040Z,11.03
2019-04-10T09:18:04.056Z,9.20
2019-04-10T09:20:35.160Z,9.73
2019-04-10T09:23:22.085Z,8.68
2019-04-10T09:25:39.464Z,11.25
2019-04-10T09:28:10.617Z,13.65
2019-04-10T09:30:42.560Z,7.35
2019-04-10T09:33:19.910Z,10.78
2019-04-10T09:35:46.832Z,13.03
2019-04-10T09:38:18.768Z,10.58
2019-04-10T09:40:49.613Z,6.75
2019-04-10T09:43:21.046Z,7.10
2019-04-10T09:45:52.128Z,5.65
2019-04-10T09:48:23.005Z,6.28
2019-04-10T09:50:54.144Z,9.48
2019-04-10T09:53:25.225Z,5.62
2019-04-10T09:55:56.778Z,9.18
2019-04-10T09:58:27.755Z,7.12
2019-04-10T10:01:05.807Z,9.28
2019-04-10T10:03:38.569Z,9.00
2019-04-10T10:06:09.427Z,6.53
2019-04-10T10:08:41.552Z,8.10
2019-04-10T10:11:13.743Z,6.87
2019-04-10T10:13:44.553Z,10.30
2019-04-10T10:16:16.953Z,10.55
2019-04-10T10:18:48.103Z,12.20
2019-04-10T10:21:19.278Z,10.80
2019-04-10T10:23:58.254Z,6.47
2019-04-10T10:26:32.872Z,8.43
2019-04-10T10:29:04.830Z,10.70
2019-04-10T10:31:36.119Z,10.25
2019-04-10T10:34:07.238Z,9.05
2019-04-10T10:36:43.009Z,13.22
2019-04-10T10:39:24.335Z,12.35
2019-04-10T10:41:58.597Z,7.95
2019-04-10T10:44:30.727Z,11.30
2019-04-10T10:47:02.121Z,6.08
2019-04-10T10:49:33.153Z,9.95
2019-04-10T10:52:04.653Z,10.03
2019-04-10T10:54:43.935Z,7.75
2019-04-10T10:57:15.530Z,7.17
2019-04-10T10:59:46.381Z,15.23
2019-04-10T11:02:17.339Z,6.60
2019-04-10T11:04:48.501Z,7.95
2019-04-10T11:07:20.089Z,11.03
2019-04-10T11:09:51.051Z,6.62
2019-04-10T11:12:22.110Z,13.18
2019-04-10T11:14:53.690Z,10.40
2019-04-10T11:17:25.487Z,9.50
2019-04-10T11:19:56.418Z,11.68
2019-04-10T11:22:27.477Z,9.95
2019-04-10T11:25:23.789Z,7.05
2019-04-10T11:27:56.475Z,11.08
2019-04-10T11:30:28.612Z,5.50
2019-04-10T11:33:03.174Z,7.53
2019-04-10T11:35:34.925Z,10.68
2019-04-10T11:38:06.102Z,12.33
2019-04-10T11:40:37.645Z,10.48
2019-04-10T11:43:10.099Z,5.40
2019-04-10T11:45:45.622Z,8.75
2019-04-10T11:48:16.957Z,6.25
2019-04-10T11:50:46.179Z,8.18
2019-04-10T11:53:17.768Z,8.45
2019-04-10T11:55:52.853Z,9.30
2019-04-10T11:58:24.364Z,7.33
2019-04-10T12:00:57.668Z,7.42
2019-04-10T12:03:27.236Z,9.20
2019-04-10T12:05:59.759Z,9.70
2019-04-10T12:08:56.453Z,9.18
2019-04-10T12:11:10.992Z,5.58
2019-04-10T12:13:38.672Z,9.38
2019-04-10T12:16:09.544Z,8.08
2019-04-10T12:18:40.724Z,6.78
2019-04-10T12:21:12.094Z,3.85
2019-04-10T12:23:43.186Z,8.98
2019-04-10T12:26:14.194Z,6.72
2019-04-10T12:28:46.503Z,11.93
2019-04-10T12:31:17.734Z,10.48
2019-04-10T12:33:48.825Z,6.22
2019-04-10T12:36:20.523Z,4.80
2019-04-10T12:38:51.936Z,10.60
2019-04-10T12:41:33.208Z,12.88
2019-04-10T12:44:09.536Z,8.20
2019-04-10T12:46:41.524Z,14.33
2019-04-10T12:49:12.576Z,13.80
2019-04-10T12:51:43.750Z,11.85
2019-04-10T12:54:14.685Z,10.60
2019-04-10T12:56:46.348Z,8.15
2019-04-10T12:59:17.423Z,10.68
2019-04-10T13:01:49.083Z,9.25
2019-04-10T13:04:21.324Z,7.42
2019-04-10T13:06:52.853Z,9.30
2019-04-10T13:09:24.277Z,11.43
2019-04-10T13:11:56.454Z,6.75
2019-04-10T13:14:27.489Z,13.75
2019-04-10T13:16:58.606Z,7.37
2019-04-10T13:19:29.582Z,11.12
2019-04-10T13:22:00.663Z,12.35
2019-04-10T13:24:31.519Z,10.00
2019-04-10T13:27:02.577Z,8.83
2019-04-10T13:29:33.416Z,8.03
2019-04-10T13:32:04.441Z,8.60
2019-04-10T13:34:35.540Z,7.97
2019-04-10T13:37:06.410Z,7.87
2019-04-10T13:39:37.471Z,6.58
2019-04-10T13:42:09.265Z,11.68
2019-04-10T13:44:40.484Z,8.63
2019-04-10T13:47:11.581Z,8.73
2019-04-10T13:49:42.423Z,10.88
2019-04-10T13:52:14.134Z,6.53
2019-04-10T13:54:45.556Z,10.20
2019-04-10T13:57:16.637Z,11.10
2019-04-10T13:59:49.002Z,23.42
2019-04-10T14:02:31.240Z,21.80
2019-04-10T14:05:03.384Z,10.78
2019-04-10T14:07:34.160Z,11.43
2019-04-10T14:10:07.342Z,10.78
2019-04-10T14:12:38.975Z,12.85
2019-04-10T14:15:10.120Z,12.70
2019-04-10T14:17:41.752Z,8.45
2019-04-10T14:20:15.225Z,10.93
2019-04-10T14:22:57.858Z,12.40
2019-04-10T14:25:47.708Z,10.50
2019-04-10T14:28:21.952Z,21.52
2019-04-10T14:30:55.563Z,10.85
2019-04-10T14:33:26.819Z,20.85
2019-04-10T14:35:57.861Z,24.15
2019-04-10T14:38:28.821Z,24.30
2019-04-10T14:41:01.090Z,20.82
2019-04-10T14:43:32.676Z,15.03
2019-04-10T14:46:05.393Z,26.93
2019-04-10T14:48:36.353Z,22.22
2019-04-10T14:51:08.111Z,30.77
2019-04-10T14:53:39.412Z,39.23
2019-04-10T14:56:11.276Z,36.08
2019-04-10T14:58:42.744Z,29.35
2019-04-10T15:01:13.909Z,32.65
2019-04-10T15:03:44.971Z,30.25
2019-04-10T15:06:16.129Z,28.92
2019-04-10T15:08:48.797Z,16.73
2019-04-10T15:11:19.683Z,11.93
2019-04-10T15:13:50.788Z,10.15
2019-04-10T15:16:23.128Z,13.43
2019-04-10T15:18:54.233Z,12.00
2019-04-10T15:21:25.358Z,20.85
2019-04-10T15:23:57.303Z,11.10
2019-04-10T15:26:28.208Z,16.90
2019-04-10T15:29:00.205Z,22.75
2019-04-10T15:31:31.307Z,22.15
2019-04-10T15:34:03.659Z,22.58
2019-04-10T15:36:34.491Z,20.82
2019-04-10T15:39:08.617Z,17.80
2019-04-10T15:41:39.366Z,17.77
2019-04-10T15:44:10.443Z,22.17
2019-04-10T15:46:41.524Z,17.77
2019-04-10T15:49:13.236Z,10.38
2019-04-10T15:51:44.001Z,25.95
2019-04-10T15:54:15.947Z,17.10
2019-04-10T15:56:46.665Z,19.17
2019-04-10T15:59:17.714Z,17.25
2019-04-10T16:01:48.959Z,22.77
2019-04-10T16:04:20.242Z,27.45
2019-04-10T16:06:51.303Z,26.02
2019-04-10T16:09:23.247Z,19.20
2019-04-10T16:11:56.354Z,17.25
2019-04-10T16:14:30.081Z,14.75
2019-04-10T16:17:01.371Z,16.23
2019-04-10T16:19:36.772Z,26.30
2019-04-10T16:22:09.228Z,34.03
2019-04-10T16:24:40.790Z,18.12
2019-04-10T16:27:11.901Z,17.05
2019-04-10T16:29:43.019Z,29.18
2019-04-10T16:32:14.741Z,25.77
2019-04-10T16:34:49.044Z,25.75
2019-04-10T16:37:19.931Z,30.70
2019-04-10T16:39:59.590Z,28.25
2019-04-10T16:42:26.588Z,25.92
2019-04-10T16:44:57.771Z,21.85
2019-04-10T16:47:28.628Z,23.57
2019-04-10T16:49:59.671Z,26.57
2019-04-10T16:52:31.235Z,38.00
2019-04-10T16:55:02.908Z,32.83
2019-04-10T16:57:34.574Z,41.20
2019-04-10T17:00:09.342Z,81.30
2019-04-10T17:02:40.517Z,136.10
2019-04-10T17:05:12.404Z,137.85
2019-04-10T17:07:43.538Z,93.33
2019-04-10T17:10:21.266Z,60.78
2019-04-10T17:12:49.538Z,64.32
2019-04-10T17:15:20.880Z,49.30
2019-04-10T17:17:52.775Z,48.63
2019-04-10T17:20:24.806Z,29.12
2019-04-10T17:22:56.464Z,26.62
2019-04-10T17:25:28.450Z,18.15
2019-04-10T17:27:59.662Z,25.70
2019-04-10T17:30:30.890Z,19.73
2019-04-10T17:33:02.845Z,24.67
2019-04-10T17:35:33.816Z,26.95
2019-04-10T17:38:04.884Z,45.65
2019-04-10T17:40:45.808Z,27.62
2019-04-10T17:43:08.599Z,56.20
2019-04-10T17:45:39.735Z,44.30
2019-04-10T17:48:11.660Z,40.10
2019-04-10T17:50:43.741Z,40.12
2019-04-10T17:53:16.576Z,38.88
2019-04-10T17:55:47.827Z,40.23
2019-04-10T17:58:19.206Z,36.98
2019-04-10T18:00:52.165Z,31.15
2019-04-10T18:03:23.570Z,30.23
2019-04-10T18:05:55.165Z,31.68
2019-04-10T18:08:28.065Z,31.50
2019-04-10T18:10:58.844Z,35.17
2019-04-10T18:13:30.819Z,29.27
2019-04-10T18:16:02.312Z,25.72
2019-04-10T18:18:33.714Z,34.70
2019-04-10T18:21:06.354Z,27.17
2019-04-10T18:23:37.716Z,31.50
2019-04-10T18:26:08.756Z,26.93
2019-04-10T18:28:39.696Z,26.87
2019-04-10T18:31:10.759Z,32.60
2019-04-10T18:33:42.577Z,36.90
2019-04-10T18:36:13.694Z,33.85
2019-04-10T18:38:45.873Z,37.98
2019-04-10T18:41:17.823Z,34.25
2019-04-10T18:43:48.725Z,31.12
2019-04-10T18:46:23.896Z,36.85
2019-04-10T18:48:55.058Z,38.92
2019-04-10T18:51:26.399Z,32.35
2019-04-10T18:53:57.683Z,28.83
2019-04-10T18:56:29.212Z,33.83
2019-04-10T18:59:02.583Z,37.40
2019-04-10T19:01:37.051Z,32.93
2019-04-10T19:04:25.037Z,33.53
2019-04-10T19:06:58.860Z,28.25
2019-04-10T19:09:32.492Z,37.55
2019-04-10T19:12:04.422Z,35.15
2019-04-10T19:14:37.107Z,32.17
2019-04-10T19:17:09.068Z,29.82
2019-04-10T19:22:14.004Z,32.53
2019-04-10T19:24:46.182Z,34.50
2019-04-10T19:27:18.074Z,33.08
2019-04-10T19:29:49.127Z,31.75
2019-04-10T19:32:22.600Z,33.30
2019-04-10T19:34:54.712Z,35.33
2019-04-10T19:37:25.584Z,35.58
2019-04-10T19:39:56.655Z,34.55
2019-04-10T19:42:27.704Z,32.42
2019-04-10T19:44:59.453Z,35.13
2019-04-10T19:47:30.731Z,32.93
2019-04-10T19:50:02.014Z,35.35
2019-04-10T19:52:33.072Z,39.05
2019-04-10T19:55:05.203Z,35.43
2019-04-10T19:57:36.011Z,36.83
2019-04-10T20:00:12.489Z,35.85
2019-04-10T20:02:44.388Z,36.88
2019-04-10T20:05:15.537Z,38.80
2019-04-10T20:07:47.136Z,33.00
2019-04-10T20:10:19.184Z,41.60
2019-04-10T20:12:50.946Z,38.00
2019-04-10T20:15:22.523Z,39.05
2019-04-10T20:17:54.613Z,40.90
2019-04-10T20:20:25.258Z,43.87
2019-04-10T20:22:56.320Z,33.33
2019-04-10T20:25:27.604Z,35.75
2019-04-10T20:27:59.172Z,43.08
2019-04-10T20:30:32.881Z,46.42
2019-04-10T20:33:03.960Z,46.68
2019-04-10T20:35:36.137Z,43.45
2019-04-10T20:38:07.272Z,43.02
2019-04-10T20:40:38.264Z,45.45
2019-04-10T20:43:09.603Z,41.30
2019-04-10T20:45:40.588Z,38.88
2019-04-10T20:48:12.036Z,37.30
2019-04-10T20:50:43.882Z,45.00
2019-04-10T20:53:15.792Z,38.45
2019-04-10T20:55:47.932Z,47.85
2019-04-10T20:58:20.491Z,43.75
2019-04-10T21:00:51.455Z,38.83
2019-04-10T21:03:23.532Z,43.60
2019-04-10T21:05:54.592Z,42.13
2019-04-10T21:08:25.577Z,41.73
2019-04-10T21:10:57.003Z,41.58
2019-04-10T21:13:27.979Z,40.88
2019-04-10T21:15:59.039Z,44.58
2019-04-10T21:18:31.125Z,40.52
2019-04-10T21:21:02.287Z,46.63
2019-04-10T21:23:33.653Z,40.95
2019-04-10T21:26:04.715Z,46.13
2019-04-10T21:28:37.068Z,44.25
2019-04-10T21:31:25.656Z,45.75
2019-04-10T21:33:58.251Z,42.98
2019-04-10T21:36:29.616Z,44.55
2019-04-10T21:39:01.043Z,42.53
2019-04-10T21:41:32.686Z,47.38
2019-04-10T21:44:04.339Z,46.85
2019-04-10T21:46:35.089Z,41.55
2019-04-10T21:49:17.398Z,42.50
2019-04-10T21:51:50.015Z,41.30
2019-04-10T21:54:27.326Z,41.35
2019-04-10T21:57:03.404Z,42.83
2019-04-10T21:59:37.190Z,42.03
2019-04-10T22:02:09.025Z,48.98
2019-04-10T22:04:41.348Z,46.55
2019-04-10T22:07:18.105Z,46.63
2019-04-10T22:09:53.175Z,42.33
2019-04-10T22:12:31.121Z,41.02
2019-04-10T22:14:58.688Z,50.50
2019-04-10T22:17:29.648Z,38.17
2019-04-10T22:20:01.310Z,46.15
2019-04-10T22:22:33.082Z,36.30
2019-04-10T22:25:05.336Z,44.42
2019-04-10T22:27:36.023Z,37.67
2019-04-10T22:30:08.395Z,40.80
2019-04-10T22:32:39.182Z,54.55
2019-04-10T22:35:11.679Z,49.38
2019-04-10T22:37:42.718Z,46.15
2019-04-10T22:40:15.281Z,46.15
2019-04-10T22:42:47.954Z,45.70
2019-04-10T22:45:29.086Z,47.35
2019-04-10T22:48:00.728Z,46.10
2019-04-10T22:50:31.946Z,50.40
2019-04-10T22:53:03.013Z,46.92
2019-04-10T22:55:33.963Z,43.87
2019-04-10T22:58:05.011Z,44.63
2019-04-10T23:00:35.985Z,40.88
2019-04-10T23:03:07.219Z,39.78
2019-04-10T23:05:38.505Z,33.45
2019-04-10T23:08:09.478Z,35.63
2019-04-10T23:10:41.298Z,45.12
2019-04-10T23:13:12.519Z,34.65
2019-04-10T23:15:43.990Z,31.85
2019-04-10T23:18:15.108Z,40.90
2019-04-10T23:20:46.209Z,37.42
2019-04-10T23:23:17.357Z,36.20
2019-04-10T23:25:48.839Z,42.58
2019-04-10T23:28:23.131Z,45.23
2019-04-10T23:30:54.237Z,50.28
2019-04-10T23:33:26.051Z,50.85
2019-04-10T23:35:57.949Z,51.73
2019-04-10T23:38:28.952Z,53.50
2019-04-10T23:41:01.093Z,59.65
2019-04-10T23:43:31.874Z,57.33
2019-04-10T23:46:02.748Z,54.98
2019-04-10T23:48:34.935Z,68.85
2019-04-10T23:51:07.097Z,63.38
2019-04-10T23:53:38.428Z,58.15
2019-04-10T23:56:09.531Z,58.58
2019-04-10T23:58:40.505Z,59.42
